Time;durP1;ratioP1;P1;durP2;ratioP2;P2;SDS_P1;SDS_P2;PMS_P1;PMS_P2;Temp;Humidity;BMP_temperature;BMP_pressure;BME280_temperature;BME280_humidity;BME280_pressure;Samples;Min_cycle;Max_cycle;Signal;HPM_P1;HPM_P2
2021/09/17 00:00:35;;;;;;;3.60;3.30;;;13.90;99.90;;;;;;5033794;28;20210;-65
2021/09/17 00:03:02;;;;;;;3.47;3.17;;;13.90;99.90;;;;;;5033526;28;20257;-65
2021/09/17 00:05:30;;;;;;;3.53;3.20;;;13.90;99.90;;;;;;5032998;28;20222;-64
2021/09/17 00:07:57;;;;;;;3.93;3.60;;;14.00;99.90;;;;;;5032928;28;20713;-64
2021/09/17 00:10:24;;;;;;;5.97;3.53;;;14.10;99.90;;;;;;5033361;28;20280;-65
2021/09/17 00:12:53;;;;;;;6.50;3.60;;;14.10;99.90;;;;;;5033437;28;20205;-64
2021/09/17 00:15:20;;;;;;;3.50;3.20;;;14.10;99.90;;;;;;5032930;28;20221;-64
2021/09/17 00:17:47;;;;;;;6.00;3.33;;;14.10;99.90;;;;;;5033271;28;20226;-65
2021/09/17 00:20:15;;;;;;;4.70;3.27;;;14.10;99.90;;;;;;5033534;28;20222;-64
2021/09/17 00:22:42;;;;;;;5.50;3.50;;;14.10;99.90;;;;;;5033777;28;20214;-64
2021/09/17 00:25:10;;;;;;;4.13;3.37;;;14.10;99.90;;;;;;5032877;28;20213;-65
2021/09/17 00:27:37;;;;;;;5.03;3.87;;;14.00;99.90;;;;;;5034132;28;20237;-65
2021/09/17 00:30:06;;;;;;;3.60;3.30;;;14.00;99.90;;;;;;5033800;28;20673;-65
2021/09/17 00:32:33;;;;;;;4.97;3.07;;;14.10;99.90;;;;;;5033594;28;20214;-66
2021/09/17 00:34:59;;;;;;;6.60;3.33;;;14.10;99.90;;;;;;5033306;28;20217;-65
2021/09/17 00:37:26;;;;;;;4.50;3.27;;;14.10;99.90;;;;;;5033047;28;20223;-64
2021/09/17 00:39:53;;;;;;;5.27;3.60;;;14.20;99.90;;;;;;5033218;28;20206;-65
2021/09/17 00:42:19;;;;;;;3.30;2.80;;;14.20;99.90;;;;;;5032930;28;20214;-64
2021/09/17 00:44:46;;;;;;;6.93;3.57;;;14.20;99.90;;;;;;5032464;28;20211;-64
2021/09/17 00:47:14;;;;;;;3.90;3.47;;;14.20;99.90;;;;;;5032959;28;20260;-64
2021/09/17 00:49:41;;;;;;;4.13;3.83;;;14.30;99.90;;;;;;5032908;28;20594;-66
2021/09/17 00:52:08;;;;;;;7.20;3.70;;;14.30;99.90;;;;;;5032629;28;20665;-66
2021/09/17 00:54:35;;;;;;;4.93;4.00;;;14.40;99.90;;;;;;5032572;28;20213;-66
2021/09/17 00:57:03;;;;;;;9.20;4.60;;;14.40;99.90;;;;;;5032426;28;20222;-66
2021/09/17 00:59:30;;;;;;;4.00;3.70;;;14.40;99.90;;;;;;5032631;28;20210;-66
2021/09/17 01:01:57;;;;;;;6.30;4.47;;;14.40;99.90;;;;;;5033603;28;20206;-65
2021/09/17 01:04:25;;;;;;;7.10;4.60;;;14.50;99.90;;;;;;5032687;28;20214;-66
2021/09/17 01:06:51;;;;;;;6.30;4.70;;;14.60;99.90;;;;;;5032469;28;20230;-66
2021/09/17 01:09:18;;;;;;;6.37;4.23;;;14.60;99.90;;;;;;5032153;28;20210;-66
2021/09/17 01:11:45;;;;;;;4.90;4.43;;;14.70;99.90;;;;;;5031846;28;20217;-66
2021/09/17 01:14:12;;;;;;;5.13;4.40;;;14.80;99.90;;;;;;5032118;28;20213;-66
2021/09/17 01:16:39;;;;;;;6.17;4.37;;;14.80;99.90;;;;;;5031542;28;20233;-65
2021/09/17 01:19:06;;;;;;;5.17;4.40;;;14.70;99.90;;;;;;5032586;28;20230;-65
2021/09/17 01:21:34;;;;;;;4.50;4.10;;;14.80;99.90;;;;;;5032385;28;20225;-65
2021/09/17 01:24:00;;;;;;;7.10;4.27;;;14.80;99.90;;;;;;5032331;28;20209;-64
2021/09/17 01:26:27;;;;;;;7.20;4.10;;;14.90;99.90;;;;;;5032147;28;20234;-65
2021/09/17 01:28:54;;;;;;;5.40;4.27;;;14.90;99.90;;;;;;5032266;28;20214;-65
2021/09/17 01:31:21;;;;;;;6.73;4.70;;;14.90;99.90;;;;;;5032561;28;20210;-65
2021/09/17 01:33:48;;;;;;;4.93;4.03;;;14.90;99.90;;;;;;5032375;28;20739;-64
2021/09/17 01:36:15;;;;;;;7.10;4.20;;;14.90;99.90;;;;;;5032172;28;20225;-64
2021/09/17 01:38:43;;;;;;;4.53;4.13;;;15.00;99.90;;;;;;5031907;28;20206;-64
2021/09/17 01:41:11;;;;;;;6.43;4.97;;;14.90;99.90;;;;;;5031911;28;20209;-65
2021/09/17 01:43:38;;;;;;;7.60;4.50;;;14.90;99.90;;;;;;5031504;28;20212;-65
2021/09/17 01:46:05;;;;;;;4.83;4.33;;;14.80;99.90;;;;;;5031761;28;20229;-64
2021/09/17 01:48:32;;;;;;;5.57;4.10;;;14.90;99.90;;;;;;5032236;28;20213;-63
2021/09/17 01:50:59;;;;;;;5.10;4.60;;;14.90;99.90;;;;;;5031901;28;20205;-65
2021/09/17 01:53:26;;;;;;;5.67;4.50;;;14.90;99.90;;;;;;5031817;28;20217;-64
2021/09/17 01:55:54;;;;;;;10.00;5.10;;;15.00;99.90;;;;;;5031663;28;20551;-65
2021/09/17 01:58:21;;;;;;;5.43;4.80;;;15.00;99.90;;;;;;5031845;28;20241;-65
2021/09/17 02:00:48;;;;;;;7.70;5.37;;;15.10;99.90;;;;;;5031892;28;20210;-64
2021/09/17 02:03:15;;;;;;;6.50;4.70;;;15.10;99.90;;;;;;5031689;28;20296;-65
2021/09/17 02:05:41;;;;;;;6.40;4.83;;;15.20;99.90;;;;;;5031650;28;20213;-65
2021/09/17 02:08:08;;;;;;;7.23;4.80;;;15.30;99.90;;;;;;5031616;28;20706;-64
2021/09/17 02:10:35;;;;;;;5.83;4.57;;;15.30;99.90;;;;;;5033122;28;20259;-65
2021/09/17 02:13:04;;;;;;;5.30;4.80;;;15.40;99.90;;;;;;5033482;28;20663;-65
2021/09/17 02:15:31;;;;;;;5.70;5.00;;;15.50;99.90;;;;;;5033427;28;20272;-65
2021/09/17 02:17:57;;;;;;;9.27;5.40;;;15.50;99.90;;;;;;5033175;28;20222;-64
2021/09/17 02:20:24;;;;;;;6.77;4.83;;;15.50;99.90;;;;;;5031724;28;20222;-65
2021/09/17 02:22:51;;;;;;;6.73;4.70;;;15.50;99.90;;;;;;5031637;28;20585;-65
2021/09/17 02:25:17;;;;;;;5.70;5.10;;;15.60;99.90;;;;;;5031674;28;20210;-65
2021/09/17 02:27:44;;;;;;;10.10;5.83;;;15.50;99.90;;;;;;5032545;28;20233;-66
2021/09/17 02:30:13;;;;;;;10.20;6.50;;;15.60;99.90;;;;;;5035261;28;20662;-65
2021/09/17 02:32:40;;;;;;;10.50;6.30;;;15.60;99.90;;;;;;5036272;28;20221;-65
2021/09/17 02:35:08;;;;;;;9.93;6.10;;;15.60;99.90;;;;;;5035085;28;20217;-64
2021/09/17 02:37:35;;;;;;;8.40;5.90;;;15.60;99.90;;;;;;5035656;28;20244;-65
2021/09/17 02:40:02;;;;;;;8.13;6.20;;;15.70;99.90;;;;;;5035772;28;20202;-65
2021/09/17 02:42:29;;;;;;;13.47;6.27;;;15.60;99.90;;;;;;5035653;28;20206;-65
2021/09/17 02:44:56;;;;;;;10.30;7.20;;;15.60;99.90;;;;;;5035083;28;20203;-64
2021/09/17 02:47:24;;;;;;;15.47;12.17;;;15.60;99.90;;;;;;5034988;28;20230;-65
2021/09/17 02:49:50;;;;;;;10.23;8.43;;;15.60;99.90;;;;;;5035240;28;20210;-65
2021/09/17 02:52:18;;;;;;;8.83;6.00;;;15.60;99.90;;;;;;5035119;28;20210;-65
2021/09/17 02:54:45;;;;;;;6.43;5.77;;;15.60;99.90;;;;;;5035003;28;20253;-64
2021/09/17 02:57:11;;;;;;;6.30;5.50;;;15.60;99.90;;;;;;5035432;28;20226;-65
2021/09/17 02:59:38;;;;;;;6.73;4.90;;;15.60;99.90;;;;;;5034748;28;20218;-64
2021/09/17 03:02:05;;;;;;;7.17;5.07;;;15.60;99.90;;;;;;5035059;28;20209;-65
2021/09/17 03:04:33;;;;;;;5.40;4.80;;;15.60;99.90;;;;;;5034841;28;20674;-66
2021/09/17 03:07:00;;;;;;;5.10;4.60;;;15.60;99.90;;;;;;5034559;28;20233;-65
2021/09/17 03:09:27;;;;;;;5.47;4.97;;;15.60;99.90;;;;;;5034633;28;20411;-65
2021/09/17 03:11:54;;;;;;;7.50;4.53;;;15.60;99.90;;;;;;5034572;28;20210;-66
2021/09/17 03:14:21;;;;;;;6.00;4.50;;;15.60;99.90;;;;;;5034158;28;20217;-65
2021/09/17 03:16:48;;;;;;;5.20;4.70;;;15.50;99.90;;;;;;5034685;28;20233;-65
2021/09/17 03:19:15;;;;;;;5.17;4.50;;;15.50;99.90;;;;;;5035565;28;20217;-65
2021/09/17 03:21:43;;;;;;;4.70;4.17;;;15.50;99.90;;;;;;5035615;28;20214;-66
2021/09/17 03:24:10;;;;;;;5.97;4.37;;;15.50;99.90;;;;;;5034310;28;20210;-65
2021/09/17 03:26:37;;;;;;;6.07;4.70;;;15.50;99.90;;;;;;5034448;28;20233;-65
2021/09/17 03:29:04;;;;;;;5.47;4.43;;;15.50;99.90;;;;;;5034161;28;20214;-66
2021/09/17 03:31:31;;;;;;;6.20;4.67;;;15.50;99.90;;;;;;5034408;28;20206;-66
2021/09/17 03:33:59;;;;;;;5.10;4.60;;;15.60;99.90;;;;;;5033808;28;20213;-64
2021/09/17 03:36:26;;;;;;;7.27;4.90;;;15.60;99.90;;;;;;5033702;28;20702;-65
2021/09/17 03:38:54;;;;;;;5.73;4.90;;;15.60;99.90;;;;;;5033298;28;20645;-65
2021/09/17 03:41:21;;;;;;;6.23;4.73;;;15.50;99.90;;;;;;5033911;28;20233;-65
2021/09/17 03:43:48;;;;;;;6.20;4.80;;;15.40;99.90;;;;;;5033792;28;20582;-65
2021/09/17 03:46:15;;;;;;;6.10;4.93;;;15.40;99.90;;;;;;5034299;28;20206;-64
2021/09/17 03:48:42;;;;;;;5.50;4.77;;;15.50;99.90;;;;;;5034553;28;20283;-65
2021/09/17 03:51:09;;;;;;;5.40;4.83;;;15.50;99.90;;;;;;5034619;28;20565;-65
2021/09/17 03:53:35;;;;;;;5.90;4.70;;;15.60;99.90;;;;;;5034636;28;20214;-65
2021/09/17 03:56:04;;;;;;;6.03;4.60;;;15.50;99.90;;;;;;5034547;28;20206;-66
2021/09/17 03:58:32;;;;;;;6.30;4.67;;;15.40;99.90;;;;;;5034724;28;20202;-65
2021/09/17 04:00:58;;;;;;;6.10;4.87;;;15.30;99.90;;;;;;5036162;28;20211;-66
2021/09/17 04:03:25;;;;;;;7.93;5.10;;;15.30;99.90;;;;;;5035593;28;20263;-65
2021/09/17 04:05:52;;;;;;;6.43;5.47;;;15.30;99.90;;;;;;5035670;28;20215;-65
2021/09/17 04:08:18;;;;;;;6.40;5.73;;;15.20;99.90;;;;;;5073393;22;20240;-65
2021/09/17 04:10:45;;;;;;;8.63;5.63;;;15.10;99.90;;;;;;5052916;28;20206;-65
2021/09/17 04:13:13;;;;;;;8.43;5.80;;;15.10;99.90;;;;;;5052999;28;20212;-65
2021/09/17 04:15:40;;;;;;;6.17;5.10;;;14.90;99.90;;;;;;5052898;28;20209;-65
2021/09/17 04:18:07;;;;;;;11.90;5.80;;;14.80;99.90;;;;;;5052532;28;20720;-64
2021/09/17 04:20:34;;;;;;;22.90;14.20;;;14.80;99.90;;;;;;5052683;28;20217;-65
2021/09/17 04:23:00;;;;;;;7.27;6.27;;;14.70;99.90;;;;;;5052656;28;20219;-65
2021/09/17 04:25:28;;;;;;;10.73;7.97;;;14.60;99.90;;;;;;5052211;28;20205;-64
2021/09/17 04:27:55;;;;;;;7.07;6.37;;;14.60;99.90;;;;;;5052663;28;20234;-64
2021/09/17 04:30:23;;;;;;;11.77;8.07;;;14.60;99.90;;;;;;5052407;28;20201;-65
2021/09/17 04:32:50;;;;;;;10.20;7.40;;;14.50;99.90;;;;;;5052442;28;20217;-65
2021/09/17 04:35:17;;;;;;;7.13;6.27;;;14.40;99.90;;;;;;5052288;28;20634;-65
2021/09/17 04:37:46;;;;;;;9.67;6.27;;;14.40;99.90;;;;;;5052050;28;20233;-65
2021/09/17 04:40:15;;;;;;;11.93;8.57;;;14.30;99.90;;;;;;5052199;28;20209;-65
2021/09/17 04:42:43;;;;;;;8.20;7.40;;;14.30;99.90;;;;;;5052333;28;20209;-65
2021/09/17 04:45:10;;;;;;;13.30;7.63;;;14.30;99.90;;;;;;5051908;28;20210;-65
2021/09/17 04:47:39;;;;;;;8.57;7.00;;;14.30;99.90;;;;;;5051906;28;20221;-65
2021/09/17 04:50:06;;;;;;;8.43;6.83;;;14.40;99.90;;;;;;5051836;28;20202;-65
2021/09/17 04:52:33;;;;;;;8.40;7.50;;;14.60;99.90;;;;;;5051776;28;20216;-65
2021/09/17 04:55:00;;;;;;;8.03;6.43;;;14.60;99.90;;;;;;5051892;28;20205;-65
2021/09/17 04:57:26;;;;;;;10.40;6.47;;;14.80;99.90;;;;;;5051942;28;20229;-65
2021/09/17 04:59:53;;;;;;;8.30;7.50;;;14.90;99.90;;;;;;5051784;28;20292;-65
2021/09/17 05:02:20;;;;;;;8.30;6.80;;;14.90;99.90;;;;;;5051878;28;20212;-65
2021/09/17 05:04:48;;;;;;;8.93;7.70;;;15.00;99.90;;;;;;5051437;28;20228;-65
2021/09/17 05:07:15;;;;;;;6.43;5.80;;;15.10;99.90;;;;;;5051142;28;20249;-65
2021/09/17 05:09:42;;;;;;;7.43;5.90;;;15.20;99.90;;;;;;5051255;28;20669;-64
2021/09/17 05:12:09;;;;;;;6.73;5.40;;;15.20;99.90;;;;;;5051531;28;20239;-64
2021/09/17 05:14:35;;;;;;;6.20;5.60;;;15.20;99.90;;;;;;5051751;28;20292;-64
2021/09/17 05:17:02;;;;;;;5.83;5.17;;;15.30;99.90;;;;;;5051285;28;20225;-65
2021/09/17 05:19:29;;;;;;;4.77;4.30;;;15.40;99.90;;;;;;5051130;28;20214;-65
2021/09/17 05:21:57;;;;;;;7.70;3.83;;;15.40;99.90;;;;;;5051493;28;20252;-65
2021/09/17 05:24:25;;;;;;;8.23;4.73;;;15.40;99.90;;;;;;5051273;28;20206;-65
2021/09/17 05:26:52;;;;;;;4.83;4.43;;;15.40;99.90;;;;;;5051571;28;20225;-65
2021/09/17 05:29:19;;;;;;;16.03;12.90;;;15.40;99.90;;;;;;5051675;28;20205;-65
2021/09/17 05:31:46;;;;;;;22.97;19.07;;;15.50;99.90;;;;;;5051717;28;20588;-65
2021/09/17 05:34:13;;;;;;;12.83;8.17;;;15.60;99.90;;;;;;5051038;28;20339;-64
2021/09/17 05:36:40;;;;;;;9.17;6.17;;;15.60;99.90;;;;;;5050977;28;20702;-64
2021/09/17 05:39:08;;;;;;;7.40;5.47;;;15.60;99.90;;;;;;5051168;28;20202;-64
2021/09/17 05:41:35;;;;;;;8.23;7.00;;;15.70;99.90;;;;;;5051217;28;20283;-65
2021/09/17 05:44:01;;;;;;;9.00;5.40;;;15.70;99.90;;;;;;5050679;28;20275;-65
2021/09/17 05:46:28;;;;;;;9.80;6.10;;;15.70;99.90;;;;;;5050787;28;20201;-65
2021/09/17 05:48:55;;;;;;;8.40;5.63;;;15.70;99.90;;;;;;5050516;28;20236;-64
2021/09/17 05:51:21;;;;;;;6.83;5.63;;;15.60;99.90;;;;;;5050867;28;20202;-65
2021/09/17 05:53:48;;;;;;;6.63;5.60;;;15.70;99.90;;;;;;5050483;28;20698;-65
2021/09/17 05:56:16;;;;;;;6.47;5.20;;;15.70;99.90;;;;;;5050749;28;20206;-65
2021/09/17 05:58:43;;;;;;;5.80;5.03;;;15.80;99.90;;;;;;5050412;28;20204;-65
2021/09/17 06:01:09;;;;;;;6.90;5.33;;;15.80;99.90;;;;;;5050807;28;20236;-65
2021/09/17 06:03:36;;;;;;;7.03;6.33;;;15.90;99.90;;;;;;5050377;28;20263;-66
2021/09/17 06:06:03;;;;;;;6.00;5.33;;;15.90;99.90;;;;;;5050877;28;20205;-64
2021/09/17 06:08:29;;;;;;;5.13;4.63;;;16.00;99.90;;;;;;5050386;28;20233;-65
2021/09/17 06:10:56;;;;;;;5.27;4.73;;;16.00;99.90;;;;;;5050628;28;20211;-65
2021/09/17 06:13:24;;;;;;;6.50;4.40;;;16.00;99.90;;;;;;5050507;28;20212;-65
2021/09/17 06:15:51;;;;;;;6.00;5.10;;;16.10;99.90;;;;;;5050651;28;20205;-65
2021/09/17 06:18:19;;;;;;;8.77;5.97;;;16.20;99.90;;;;;;5050342;28;20766;-65
2021/09/17 06:20:45;;;;;;;6.23;5.63;;;16.10;99.90;;;;;;5050424;28;20734;-65
2021/09/17 06:23:12;;;;;;;7.23;5.00;;;16.10;99.90;;;;;;5050738;28;20205;-65
2021/09/17 06:25:39;;;;;;;6.87;5.03;;;16.20;99.90;;;;;;5050661;28;20213;-65
2021/09/17 06:28:07;;;;;;;12.80;6.30;;;16.30;99.90;;;;;;5050479;28;20232;-66
2021/09/17 06:30:35;;;;;;;8.37;6.00;;;16.40;99.90;;;;;;5050814;28;20210;-66
2021/09/17 06:33:02;;;;;;;8.00;6.03;;;16.50;99.90;;;;;;5050786;28;20275;-66
2021/09/17 06:35:28;;;;;;;10.37;5.90;;;16.70;99.90;;;;;;5050824;28;20209;-65
2021/09/17 06:37:56;;;;;;;6.33;5.73;;;16.70;99.90;;;;;;5050428;28;20237;-66
2021/09/17 06:40:25;;;;;;;19.63;6.53;;;16.80;99.90;;;;;;5050744;28;20213;-66
2021/09/17 06:42:53;;;;;;;9.43;8.00;;;16.80;99.90;;;;;;5050548;28;20251;-66
2021/09/17 06:45:20;;;;;;;13.10;6.10;;;16.80;99.90;;;;;;5050189;28;20208;-65
2021/09/17 06:47:50;;;;;;;9.10;6.10;;;16.70;99.90;;;;;;5050596;28;20228;-65
2021/09/17 06:50:19;;;;;;;9.00;6.00;;;16.80;99.90;;;;;;5050570;28;20244;-65
2021/09/17 06:52:50;;;;;;;7.23;5.97;;;17.00;99.90;;;;;;5050563;28;20588;-65
2021/09/17 06:55:18;;;;;;;7.60;5.17;;;17.10;99.90;;;;;;5050160;28;20209;-66
2021/09/17 06:57:46;;;;;;;5.93;4.80;;;17.20;99.90;;;;;;5050236;28;20693;-66
2021/09/17 07:00:14;;;;;;;6.40;4.57;;;17.30;99.90;;;;;;5050449;28;20751;-65
2021/09/17 07:02:41;;;;;;;5.47;4.50;;;17.10;99.90;;;;;;5050243;28;20210;-65
2021/09/17 07:05:10;;;;;;;5.72;4.78;;;17.20;99.90;;;;;;5049913;28;20201;-66
2021/09/17 07:07:37;;;;;;;5.10;4.60;;;17.20;99.90;;;;;;5050025;28;20242;-65
2021/09/17 07:10:05;;;;;;;7.00;5.20;;;17.20;99.90;;;;;;5050157;28;20222;-65
2021/09/17 07:12:32;;;;;;;5.57;5.00;;;17.30;99.90;;;;;;5050472;28;20206;-67
2021/09/17 07:14:58;;;;;;;8.53;4.97;;;17.40;99.90;;;;;;5051429;28;20206;-64
2021/09/17 07:17:25;;;;;;;6.30;4.47;;;17.50;99.90;;;;;;5054157;28;20728;-64
2021/09/17 07:19:52;;;;;;;7.63;4.73;;;17.60;99.90;;;;;;5054028;28;20212;-63
2021/09/17 07:22:20;;;;;;;5.77;5.17;;;17.70;99.90;;;;;;5053917;28;20213;-66
2021/09/17 07:24:47;;;;;;;5.00;4.53;;;17.80;99.90;;;;;;5053775;28;20275;-66
2021/09/17 07:27:14;;;;;;;10.53;4.70;;;17.90;99.90;;;;;;5053902;28;20308;-66
2021/09/17 07:29:41;;;;;;;6.30;5.70;;;18.00;99.90;;;;;;5053707;28;20236;-67
2021/09/17 07:32:09;;;;;;;6.97;5.00;;;18.10;99.90;;;;;;5054829;28;20251;-66
2021/09/17 07:34:35;;;;;;;4.85;4.35;;;18.30;99.90;;;;;;5054438;28;20202;-61
2021/09/17 07:37:02;;;;;;;5.65;4.85;;;18.50;99.90;;;;;;5054088;28;20226;-64
2021/09/17 07:39:30;;;;;;;4.82;4.32;;;18.60;99.90;;;;;;5053528;28;20201;-64
2021/09/17 07:41:57;;;;;;;5.03;4.53;;;18.80;99.90;;;;;;5053718;28;20213;-64
2021/09/17 07:44:24;;;;;;;6.45;5.22;;;18.90;99.90;;;;;;5053431;28;20232;-64
2021/09/17 07:46:50;;;;;;;5.47;4.78;;;19.20;99.90;;;;;;5053530;28;20262;-63
2021/09/17 07:49:17;;;;;;;6.07;4.22;;;19.30;99.90;;;;;;5052876;28;20224;-63
2021/09/17 07:51:44;;;;;;;4.38;3.92;;;19.40;99.90;;;;;;5053420;28;20589;-63
2021/09/17 07:54:10;;;;;;;4.40;4.00;;;19.50;99.90;;;;;;5053522;28;20685;-64
2021/09/17 07:56:38;;;;;;;5.43;4.55;;;19.50;99.90;;;;;;5053589;28;20276;-64
2021/09/17 07:59:05;;;;;;;6.30;4.70;;;19.50;99.90;;;;;;5050302;28;20432;-70
2021/09/17 08:01:32;;;;;;;4.95;4.28;;;19.50;99.90;;;;;;5053300;28;20556;-69
2021/09/17 08:03:59;;;;;;;5.45;4.45;;;19.70;99.90;;;;;;5052855;28;20597;-70
2021/09/17 08:06:25;;;;;;;7.82;4.60;;;19.80;99.90;;;;;;5052750;28;20209;-70
2021/09/17 08:08:52;;;;;;;5.70;4.55;;;20.00;99.90;;;;;;5052399;28;20225;-70
2021/09/17 08:11:19;;;;;;;7.72;4.50;;;20.10;99.90;;;;;;5053184;28;20316;-70
2021/09/17 08:13:47;;;;;;;9.07;4.30;;;20.30;99.90;;;;;;5052662;28;20209;-69
2021/09/17 08:16:16;;;;;;;5.20;4.07;;;20.30;99.90;;;;;;5052819;28;20205;-69
2021/09/17 08:18:45;;;;;;;7.68;4.25;;;20.20;99.90;;;;;;5052206;28;20212;-70
2021/09/17 08:21:11;;;;;;;7.25;4.30;;;20.30;99.90;;;;;;5052705;28;20236;-70
2021/09/17 08:23:38;;;;;;;5.55;4.00;;;20.60;99.90;;;;;;5052599;28;20205;-70
2021/09/17 08:26:06;;;;;;;7.72;4.00;;;20.80;99.90;;;;;;5052158;28;20616;-69
2021/09/17 08:28:32;;;;;;;10.55;4.63;;;21.00;99.90;;;;;;5052327;28;20233;-70
2021/09/17 08:31:02;;;;;;;6.63;4.78;;;21.10;99.90;;;;;;5052336;28;20410;-70
2021/09/17 08:33:29;;;;;;;4.88;3.92;;;20.90;99.90;;;;;;5052351;28;20201;-69
2021/09/17 08:35:56;;;;;;;8.80;4.55;;;20.50;99.90;;;;;;5052671;28;20217;-68
2021/09/17 08:38:23;;;;;;;7.85;4.40;;;20.20;99.90;;;;;;5052465;28;20225;-68
2021/09/17 08:40:53;;;;;;;6.03;4.55;;;20.30;99.90;;;;;;5052810;28;20216;-69
2021/09/17 08:43:21;;;;;;;5.18;4.40;;;20.50;99.90;;;;;;5053028;28;20240;-69
2021/09/17 08:45:48;;;;;;;8.57;4.47;;;20.50;99.90;;;;;;5052865;28;20212;-69
2021/09/17 08:48:17;;;;;;;7.13;5.10;;;20.30;99.90;;;;;;5052345;28;20672;-69
2021/09/17 08:50:44;;;;;;;5.40;4.45;;;20.40;99.90;;;;;;5054369;28;20201;-69
2021/09/17 08:53:11;;;;;;;6.70;5.40;;;20.40;99.90;;;;;;5054990;28;20215;-69
2021/09/17 08:55:38;;;;;;;6.57;4.78;;;20.60;99.90;;;;;;5052866;28;20217;-70
2021/09/17 08:58:05;;;;;;;7.28;5.05;;;20.70;99.90;;;;;;5052452;28;20233;-70
2021/09/17 09:00:42;;;;;;;6.10;5.20;;;20.60;99.90;;;;;;5052027;28;20590;-70
2021/09/17 09:03:10;;;;;;;8.35;5.50;;;20.60;99.90;;;;;;5052607;28;20296;-70
2021/09/17 09:05:40;;;;;;;5.45;4.93;;;20.90;99.90;;;;;;5051771;28;20605;-69
2021/09/17 09:08:07;;;;;;;6.18;5.00;;;21.10;99.90;;;;;;5051470;28;20606;-69
2021/09/17 09:10:35;;;;;;;5.50;4.82;;;21.60;99.90;;;;;;5051412;28;20286;-68
2021/09/17 09:13:04;;;;;;;5.88;5.28;;;22.10;99.90;;;;;;5051843;28;20508;-69
2021/09/17 09:15:33;;;;;;;5.75;5.22;;;22.40;99.90;;;;;;5052078;28;20293;-63
2021/09/17 09:18:01;;;;;;;8.05;5.55;;;22.70;99.90;;;;;;5051529;28;20274;-63
2021/09/17 09:20:30;;;;;;;6.38;5.78;;;22.90;99.90;;;;;;5051644;28;20284;-63
2021/09/17 09:23:07;;;;;;;11.93;5.80;;;22.90;99.90;;;;;;5051797;28;20212;-64
2021/09/17 09:25:34;;;;;;;6.78;5.57;;;22.60;99.90;;;;;;5051193;28;20554;-63
2021/09/17 09:28:12;;;;;;;6.35;5.78;;;22.70;99.90;;;;;;5051532;28;20221;-64
2021/09/17 09:30:39;;;;;;;9.18;6.22;;;23.00;99.90;;;;;;5051747;28;20370;-63
2021/09/17 09:33:21;;;;;;;6.15;5.40;;;23.00;99.90;;;;;;5051286;28;20673;-64
2021/09/17 09:35:56;;;;;;;6.50;5.55;;;23.30;99.90;;;;;;5051288;28;20205;-63
2021/09/17 09:38:31;;;;;;;8.68;5.57;;;23.70;99.90;;;;;;5050542;28;20233;-63
2021/09/17 09:40:59;;;;;;;8.63;5.68;;;24.00;99.90;;;;;;5051103;28;20205;-63
2021/09/17 09:43:30;;;;;;;8.55;5.63;;;24.20;99.90;;;;;;5051287;28;20263;-63
2021/09/17 09:46:21;;;;;;;8.95;6.15;;;24.10;99.90;;;;;;5051439;28;20232;-63
2021/09/17 09:49:18;;;;;;;7.10;5.95;;;24.10;99.90;;;;;;5051105;28;20633;-64
2021/09/17 09:51:56;;;;;;;7.80;5.55;;;24.30;99.90;;;;;;5050202;28;20243;-63
2021/09/17 09:54:27;;;;;;;7.25;5.10;;;24.00;99.90;;;;;;5051103;28;20205;-63
2021/09/17 09:56:55;;;;;;;8.07;4.82;;;23.60;99.90;;;;;;5052081;28;20236;-63
2021/09/17 09:59:25;;;;;;;7.78;5.15;;;23.70;99.90;;;;;;5051779;28;20209;-64
2021/09/17 10:01:55;;;;;;;5.78;4.70;;;23.90;99.90;;;;;;5051466;28;20247;-64
2021/09/17 10:04:23;;;;;;;6.22;4.90;;;23.90;99.90;;;;;;5051059;28;20214;-63
2021/09/17 10:07:00;;;;;;;5.03;4.45;;;24.00;99.90;;;;;;5071740;22;20245;-61
2021/09/17 10:09:28;;;;;;;7.03;4.63;;;24.50;99.90;;;;;;5030933;28;20234;-62
2021/09/17 10:11:56;;;;;;;4.85;4.30;;;24.70;99.90;;;;;;5030776;28;20217;-62
2021/09/17 10:14:25;;;;;;;4.35;3.90;;;24.90;99.90;;;;;;5030478;28;20206;-62
2021/09/17 10:16:52;;;;;;;5.30;4.80;;;24.90;99.90;;;;;;5032790;28;20210;-62
2021/09/17 10:19:21;;;;;;;6.07;4.80;;;24.80;99.90;;;;;;5050556;28;20209;-62
2021/09/17 10:21:56;;;;;;;8.05;4.53;;;24.90;99.90;;;;;;5050768;28;20258;-62
2021/09/17 10:24:43;;;;;;;5.68;4.47;;;25.10;99.90;;;;;;5050550;28;20205;-61
2021/09/17 10:27:17;;;;;;;5.32;3.92;;;25.40;99.90;;;;;;5050722;28;20225;-62
2021/09/17 10:29:46;;;;;;;4.88;4.45;;;25.60;99.90;;;;;;5050429;28;20228;-62
2021/09/17 10:32:38;;;;;;;5.30;4.22;;;25.80;99.90;;;;;;5049978;28;20652;-62
2021/09/17 10:35:11;;;;;;;5.60;4.13;;;25.90;99.90;;;;;;5050401;28;20292;-62
2021/09/17 10:38:15;;;;;;;5.93;4.45;;;25.80;99.90;;;;;;5050060;28;20229;-62
2021/09/17 10:40:52;;;;;;;4.93;3.40;;;25.60;99.90;;;;;;5007948;28;20666;-62
2021/09/17 10:43:21;;;;;;;6.03;3.60;;;25.60;99.90;;;;;;5044830;28;20213;-64
2021/09/17 10:45:50;;;;;;;3.95;3.38;;;25.80;99.90;;;;;;5050933;28;20657;-63
2021/09/17 10:48:18;;;;;;;6.20;3.10;;;25.90;99.90;;;;;;5069779;28;20776;-64
2021/09/17 10:50:51;;;;;;;3.50;2.90;;;26.00;99.90;;;;;;5073834;28;20228;-64
2021/09/17 10:54:03;;;;;;;5.22;3.58;;;26.20;99.90;;;;;;5074033;28;20684;-64
2021/09/17 10:57:03;;;;;;;5.22;3.47;;;26.20;99.90;;;;;;5074017;28;20258;-65
2021/09/17 10:59:50;;;;;;;7.05;4.10;;;26.10;99.50;;;;;;5068589;28;20205;-65
2021/09/17 11:02:17;;;;;;;4.47;3.47;;;25.90;99.90;;;;;;5074000;28;20204;-65
2021/09/17 11:04:46;;;;;;;4.78;3.00;;;25.90;99.90;;;;;;5073833;28;20216;-65
2021/09/17 11:07:36;;;;;;;4.28;3.17;;;25.70;99.90;;;;;;5043157;28;20250;-65
2021/09/17 11:10:05;;;;;;;4.35;2.83;;;25.60;99.90;;;;;;5047072;28;20233;-63
2021/09/17 11:12:34;;;;;;;5.75;3.20;;;25.40;99.90;;;;;;5053754;28;20205;-62
2021/09/17 11:15:11;;;;;;;6.25;3.70;;;25.40;99.90;;;;;;5073386;28;20205;-61
2021/09/17 11:17:41;;;;;;;6.30;3.85;;;25.30;99.90;;;;;;5073037;28;20232;-62
2021/09/17 11:20:11;;;;;;;4.20;3.30;;;25.30;99.90;;;;;;5073123;28;20208;-65
2021/09/17 11:22:58;;;;;;;4.15;3.05;;;25.50;99.90;;;;;;5073553;28;20220;-62
2021/09/17 11:25:29;;;;;;;4.50;2.80;;;25.50;99.90;;;;;;5064575;28;20405;-63
2021/09/17 11:27:55;;;;;;;4.28;3.05;;;25.50;99.90;;;;;;5040125;28;20216;-63
2021/09/17 11:30:26;;;;;;;5.00;3.00;;;25.60;99.90;;;;;;5072813;28;20220;-64
2021/09/17 11:32:54;;;;;;;3.72;2.50;;;25.60;98.70;;;;;;5073633;28;20649;-66
2021/09/17 11:35:21;;;;;;;4.80;3.10;;;25.40;97.90;;;;;;5073392;28;20209;-65
2021/09/17 11:37:53;;;;;;;3.78;2.53;;;25.20;98.50;;;;;;5073597;28;20233;-64
2021/09/17 11:40:20;;;;;;;4.28;2.38;;;24.70;98.20;;;;;;5073593;28;20246;-64
2021/09/17 11:42:47;;;;;;;3.67;2.58;;;24.40;98.60;;;;;;5073110;28;20672;-65
2021/09/17 11:45:16;;;;;;;3.25;2.65;;;24.20;98.70;;;;;;5073440;28;20280;-64
2021/09/17 11:47:49;;;;;;;4.10;3.13;;;23.90;99.10;;;;;;5072955;28;20252;-67
2021/09/17 11:50:17;;;;;;;4.30;3.90;;;23.90;99.90;;;;;;5073614;28;20233;-62
2021/09/17 11:52:47;;;;;;;5.18;3.90;;;23.90;99.90;;;;;;5073622;28;20213;-63
2021/09/17 11:55:16;;;;;;;5.13;3.85;;;24.00;99.90;;;;;;5073700;28;20212;-63
2021/09/17 11:57:44;;;;;;;3.97;3.45;;;24.10;99.90;;;;;;5073482;28;20251;-63
2021/09/17 12:00:13;;;;;;;5.20;3.35;;;24.00;99.90;;;;;;5072914;28;20209;-64
2021/09/17 12:02:40;;;;;;;4.07;2.85;;;24.00;99.90;;;;;;5073957;28;20224;-63
2021/09/17 12:05:14;;;;;;;3.42;2.60;;;23.90;98.80;;;;;;5073269;28;20251;-62
2021/09/17 12:07:42;;;;;;;4.50;3.00;;;23.80;99.10;;;;;;5072933;28;20260;-63
2021/09/17 12:10:11;;;;;;;5.18;3.65;;;23.90;99.80;;;;;;5073083;28;20366;-63
2021/09/17 12:12:41;;;;;;;4.90;3.60;;;24.00;99.20;;;;;;5073315;28;20209;-63
2021/09/17 12:15:08;;;;;;;3.33;3.03;;;24.20;99.30;;;;;;5073328;28;20205;-64
2021/09/17 12:17:35;;;;;;;4.10;2.40;;;24.30;98.80;;;;;;5073726;28;20719;-63
2021/09/17 12:20:06;;;;;;;3.63;3.33;;;24.40;97.50;;;;;;5073443;28;20208;-63
2021/09/17 12:22:37;;;;;;;3.50;2.80;;;24.20;98.30;;;;;;5064003;28;20206;-64
2021/09/17 12:25:10;;;;;;;3.63;3.20;;;24.00;98.50;;;;;;5053374;28;20218;-68
2021/09/17 12:27:38;;;;;;;6.95;4.38;;;24.10;99.40;;;;;;5052837;28;20302;-67
2021/09/17 12:30:08;;;;;;;4.70;3.20;;;24.30;99.30;;;;;;5052715;28;20256;-67
2021/09/17 12:32:34;;;;;;;3.60;3.30;;;24.60;99.10;;;;;;5052774;28;20695;-64
2021/09/17 12:35:02;;;;;;;4.60;3.38;;;24.80;98.40;;;;;;5053184;28;20232;-64
2021/09/17 12:37:29;;;;;;;4.05;3.33;;;24.90;98.10;;;;;;5053056;28;20257;-64
2021/09/17 12:40:13;;;;;;;3.65;2.88;;;25.00;97.60;;;;;;5052842;28;20216;-63
2021/09/17 12:42:40;;;;;;;5.45;2.85;;;24.80;97.60;;;;;;5052875;28;20241;-63
2021/09/17 12:45:08;;;;;;;4.45;3.40;;;24.80;97.50;;;;;;5052753;28;20220;-64
2021/09/17 12:47:35;;;;;;;4.18;3.53;;;24.70;97.90;;;;;;5052655;28;20232;-64
2021/09/17 12:50:10;;;;;;;4.10;3.25;;;24.70;98.20;;;;;;5052326;28;20225;-65
2021/09/17 12:52:38;;;;;;;3.15;2.83;;;24.80;97.90;;;;;;5052584;28;20205;-64